createdAt,value
2022-10-27T00:02:18.271Z,152253.16
2022-10-27T00:04:44.128Z,152268.34
2022-10-27T00:07:09.883Z,152243.00
2022-10-27T00:09:35.638Z,152234.09
2022-10-27T00:12:01.465Z,152255.69
2022-10-27T00:14:29.604Z,152232.81
2022-10-27T00:16:55.801Z,152222.72
2022-10-27T00:19:23.438Z,152218.91
2022-10-27T00:21:50.991Z,152216.38
2022-10-27T00:24:20.240Z,152211.28
2022-10-27T00:26:46.126Z,152220.19
2022-10-27T00:29:12.001Z,152244.25
2022-10-27T00:31:38.149Z,152225.22
2022-10-27T00:34:03.871Z,152211.28
2022-10-27T00:36:29.959Z,152188.44
2022-10-27T00:38:57.959Z,152196.03
2022-10-27T00:41:39.173Z,152188.44
2022-10-27T00:44:34.535Z,152212.53
2022-10-27T00:47:09.150Z,152196.03
2022-10-27T00:49:45.112Z,152189.72
2022-10-27T00:52:40.314Z,152203.69
2022-10-27T00:55:14.218Z,152202.41
2022-10-27T00:57:43.442Z,152206.22
2022-10-27T01:00:09.787Z,152199.88
2022-10-27T01:02:36.239Z,152196.03
2022-10-27T01:05:18.185Z,152213.81
2022-10-27T01:07:45.098Z,152217.66
2022-10-27T01:10:12.086Z,152198.63
2022-10-27T01:12:38.538Z,152184.66
2022-10-27T01:15:04.956Z,152193.50
2022-10-27T01:17:41.594Z,152197.31
2022-10-27T01:20:10.154Z,152183.38
2022-10-27T01:22:45.064Z,152132.63
2022-10-27T01:25:46.834Z,152126.31
2022-10-27T01:28:36.935Z,152123.72
2022-10-27T01:31:26.221Z,152154.19
2022-10-27T01:34:06.769Z,152132.63
2022-10-27T01:36:45.369Z,152156.72
2022-10-27T01:39:18.100Z,152150.41
2022-10-27T01:41:55.651Z,152154.19
2022-10-27T01:44:27.859Z,152121.19
2022-10-27T01:46:55.208Z,152122.47
2022-10-27T01:49:21.031Z,152114.88
2022-10-27T01:51:48.635Z,152127.56
2022-10-27T01:54:15.853Z,152117.41
2022-10-27T01:56:57.123Z,152117.41
2022-10-27T01:59:34.676Z,152119.94
2022-10-27T02:02:09.413Z,152114.88
2022-10-27T02:04:50.038Z,152140.22
2022-10-27T02:07:39.841Z,152114.88
2022-10-27T02:10:25.501Z,152103.44
2022-10-27T02:12:53.053Z,152133.91
2022-10-27T02:15:39.296Z,152128.84
2022-10-27T02:18:09.846Z,152103.44
2022-10-27T02:20:40.468Z,152090.75
2022-10-27T02:23:09.715Z,152092.00
2022-10-27T02:26:10.709Z,152121.19
2022-10-27T02:28:42.865Z,152125.00
2022-10-27T02:31:10.420Z,152093.28
2022-10-27T02:33:36.347Z,152114.88
2022-10-27T02:36:02.123Z,152118.66
2022-10-27T02:38:27.931Z,152094.59
2022-10-27T02:40:53.658Z,152090.75
2022-10-27T02:43:19.439Z,152116.13
2022-10-27T02:45:45.280Z,152109.81
2022-10-27T02:48:10.996Z,152132.63
2022-10-27T02:50:36.853Z,152133.91
2022-10-27T02:53:02.675Z,152119.94
2022-10-27T02:55:28.515Z,152111.09
2022-10-27T02:57:54.224Z,152123.72
2022-10-27T03:00:20.100Z,152108.56
2022-10-27T03:02:47.375Z,152097.13
2022-10-27T03:05:13.310Z,152097.13
2022-10-27T03:07:39.037Z,152092.00
2022-10-27T03:10:05.409Z,152118.66
2022-10-27T03:12:31.251Z,152085.63
2022-10-27T03:14:56.961Z,152075.50
2022-10-27T03:17:22.793Z,152072.97
2022-10-27T03:19:48.539Z,152045.06
2022-10-27T03:22:14.354Z,152080.56
2022-10-27T03:24:40.212Z,152059.03
2022-10-27T03:27:06.021Z,152092.00
2022-10-27T03:29:31.789Z,152052.66
2022-10-27T03:31:57.681Z,152112.34
2022-10-27T03:34:23.488Z,152125.00
2022-10-27T03:36:49.311Z,152150.41
2022-10-27T03:39:15.488Z,152132.63
2022-10-27T03:41:41.380Z,152144.00
2022-10-27T03:44:07.225Z,152108.56
2022-10-27T03:46:33.020Z,152093.28
2022-10-27T03:48:58.811Z,152074.25
2022-10-27T03:51:24.560Z,152051.38
2022-10-27T03:53:50.457Z,152000.72
2022-10-27T03:56:16.304Z,152000.72
2022-10-27T03:58:42.244Z,152023.53
2022-10-27T04:01:10.513Z,152019.72
2022-10-27T04:03:38.506Z,151990.53
2022-10-27T04:06:05.161Z,151985.47
2022-10-27T04:08:30.841Z,152033.63
2022-10-27T04:10:56.649Z,152014.63
2022-10-27T04:13:25.470Z,152007.03
2022-10-27T04:15:54.178Z,152018.47
2022-10-27T04:18:19.942Z,152005.75
2022-10-27T04:20:45.715Z,151988.00
2022-10-27T04:23:11.462Z,151991.81
2022-10-27T04:25:37.175Z,151998.13
2022-10-27T04:28:07.453Z,152012.09
2022-10-27T04:30:33.980Z,152045.06
2022-10-27T04:32:59.977Z,152022.25
2022-10-27T04:35:25.914Z,152031.09
2022-10-27T04:37:54.255Z,152042.53
2022-10-27T04:40:20.171Z,152045.06
2022-10-27T04:42:46.372Z,152047.59
2022-10-27T04:45:13.333Z,152034.91
2022-10-27T04:47:39.246Z,152038.75
2022-10-27T04:50:05.368Z,152013.34
2022-10-27T04:52:31.304Z,152014.63
2022-10-27T04:54:57.134Z,152032.38
2022-10-27T04:57:22.892Z,152005.75
2022-10-27T04:59:48.932Z,152015.88
2022-10-27T05:02:14.758Z,152031.09
2022-10-27T05:04:40.701Z,152010.81
2022-10-27T05:07:06.512Z,152013.34
2022-10-27T05:09:32.250Z,152012.09
2022-10-27T05:11:58.047Z,151976.59
2022-10-27T05:14:23.787Z,151963.94
2022-10-27T05:16:49.605Z,151976.59
2022-10-27T05:19:15.444Z,151981.63
2022-10-27T05:21:41.266Z,151965.19
2022-10-27T05:24:07.154Z,151960.09
2022-10-27T05:26:35.586Z,151949.97
2022-10-27T05:29:03.943Z,151947.44
2022-10-27T05:31:29.691Z,151949.97
2022-10-27T05:33:55.564Z,151951.25
2022-10-27T05:36:21.422Z,151993.06
2022-10-27T05:38:47.184Z,151979.13
2022-10-27T05:41:12.957Z,151984.22
2022-10-27T05:43:42.541Z,151995.59
2022-10-27T05:46:08.564Z,152003.22
2022-10-27T05:48:34.323Z,151986.75
2022-10-27T05:51:00.143Z,151980.38
2022-10-27T05:53:25.872Z,151999.38
2022-10-27T05:55:53.413Z,151979.13
2022-10-27T05:58:19.339Z,151976.59
2022-10-27T06:00:45.184Z,151980.38
2022-10-27T06:03:20.137Z,151969.00
2022-10-27T06:05:45.913Z,152013.34
2022-10-27T06:08:11.717Z,151991.81
2022-10-27T06:10:37.466Z,151974.06
2022-10-27T06:13:05.145Z,151970.25
2022-10-27T06:15:32.407Z,151975.31
2022-10-27T06:17:58.637Z,151970.25
2022-10-27T06:20:24.921Z,151985.47
2022-10-27T06:22:50.744Z,151971.53
2022-10-27T06:25:16.954Z,151975.31
2022-10-27T06:27:42.897Z,151957.56
2022-10-27T06:30:08.992Z,151966.47
2022-10-27T06:32:40.533Z,151976.59
2022-10-27T06:35:07.784Z,151984.22
2022-10-27T06:37:37.084Z,152005.75
2022-10-27T06:40:03.804Z,152013.34
2022-10-27T06:42:34.860Z,152047.59
2022-10-27T06:45:05.324Z,152022.25
2022-10-27T06:47:31.344Z,152001.97
2022-10-27T06:49:57.173Z,152021.00
2022-10-27T06:52:23.070Z,152023.53
2022-10-27T06:54:52.845Z,152033.63
2022-10-27T06:57:20.179Z,152050.13
2022-10-27T06:59:46.038Z,152070.41
2022-10-27T07:02:13.887Z,152084.38
2022-10-27T07:04:40.264Z,152079.31
2022-10-27T07:07:06.272Z,152095.84
2022-10-27T07:09:32.019Z,152105.97
2022-10-27T07:11:57.766Z,152111.09
2022-10-27T07:14:23.968Z,152145.34
2022-10-27T07:16:49.701Z,152174.47
2022-10-27T07:19:15.550Z,152163.09
2022-10-27T07:21:41.319Z,152154.19
2022-10-27T07:24:08.795Z,152174.47
2022-10-27T07:26:37.889Z,152169.41
2022-10-27T07:29:03.646Z,152194.78
2022-10-27T07:31:29.428Z,152192.25
2022-10-27T07:33:55.173Z,152180.84
2022-10-27T07:36:20.979Z,152215.06
2022-10-27T07:38:46.711Z,152210.00
2022-10-27T07:41:12.475Z,152221.44
2022-10-27T07:43:38.823Z,152231.56
2022-10-27T07:46:04.660Z,152248.06
2022-10-27T07:48:30.540Z,152244.25
2022-10-27T07:50:56.490Z,152249.31
2022-10-27T07:53:22.277Z,152262.03
2022-10-27T07:55:48.032Z,152291.22
2022-10-27T07:58:16.438Z,152301.38
2022-10-27T08:00:44.693Z,152340.69
2022-10-27T08:03:14.787Z,152378.81
2022-10-27T08:05:40.586Z,152378.81
2022-10-27T08:08:07.111Z,152383.88
2022-10-27T08:10:35.742Z,152383.88
2022-10-27T08:13:01.861Z,152409.28
2022-10-27T08:15:27.869Z,152439.78
2022-10-27T08:17:57.189Z,152437.25
2022-10-27T08:20:23.522Z,152424.53
2022-10-27T08:23:03.600Z,152466.41
2022-10-27T08:25:30.153Z,152479.13
2022-10-27T08:27:56.951Z,152479.13
2022-10-27T08:30:24.967Z,152493.09
2022-10-27T08:32:56.566Z,152489.31
2022-10-27T08:35:22.892Z,152507.09
2022-10-27T08:37:48.896Z,152528.66
2022-10-27T08:40:15.325Z,152565.47
2022-10-27T08:43:03.183Z,152551.50
2022-10-27T08:45:33.746Z,152582.00
2022-10-27T08:48:00.756Z,152598.50
2022-10-27T08:50:32.263Z,152612.44
2022-10-27T08:53:01.041Z,152648.00
2022-10-27T08:55:38.002Z,152665.78
2022-10-27T08:58:19.566Z,152640.41
2022-10-27T09:00:57.109Z,152662.00
2022-10-27T09:03:46.709Z,152675.97
2022-10-27T09:06:22.468Z,152683.59
2022-10-27T09:09:11.494Z,152683.59
2022-10-27T09:11:55.393Z,152715.41
2022-10-27T09:14:46.626Z,152730.66
2022-10-27T09:17:28.884Z,152759.91
2022-10-27T09:20:08.141Z,152832.34
2022-10-27T09:22:38.265Z,152875.53
2022-10-27T09:25:12.087Z,152982.38
2022-10-27T09:27:38.112Z,153017.97
2022-10-27T09:30:10.590Z,153160.41
2022-10-27T09:32:40.402Z,153356.41
2022-10-27T09:35:28.164Z,153445.44
2022-10-27T09:37:57.055Z,153821.25
2022-10-27T09:40:25.134Z,154328.81
2022-10-27T09:42:54.171Z,155178.25
2022-10-27T09:45:23.255Z,155773.25
2022-10-27T09:47:53.694Z,156030.69
2022-10-27T09:50:29.351Z,156143.38
2022-10-27T09:52:55.257Z,156558.75
2022-10-27T09:55:21.222Z,156534.38
2022-10-27T09:57:49.182Z,157226.06
2022-10-27T10:00:21.363Z,157210.66
2022-10-27T10:05:35.850Z,157400.75
2022-10-27T10:08:13.828Z,157231.25
2022-10-27T10:10:52.197Z,157016.78
2022-10-27T10:13:19.763Z,156856.38
2022-10-27T10:15:46.191Z,156957.78
2022-10-27T10:18:27.734Z,157042.50
2022-10-27T10:21:07.231Z,157548.56
2022-10-27T10:23:47.876Z,157525.38
2022-10-27T10:26:25.635Z,157956.00
2022-10-27T10:29:17.226Z,158049.91
2022-10-27T10:31:44.871Z,157333.97
2022-10-27T10:34:32.293Z,157301.84
2022-10-27T10:36:58.278Z,157777.31
2022-10-27T10:39:26.555Z,157939.31
2022-10-27T10:42:10.329Z,157684.75
2022-10-27T10:44:37.043Z,157992.00
2022-10-27T10:47:04.043Z,157773.41
2022-10-27T10:49:41.569Z,158119.34
2022-10-27T10:52:18.394Z,158154.09
2022-10-27T10:54:46.243Z,158470.59
2022-10-27T10:57:45.182Z,157918.75
2022-10-27T11:00:18.614Z,157773.41
2022-10-27T11:03:01.046Z,157269.75
2022-10-27T11:05:35.280Z,157098.94
2022-10-27T11:08:03.534Z,156957.78
2022-10-27T11:10:41.496Z,156610.09
2022-10-27T11:13:19.438Z,156866.63
2022-10-27T11:15:56.878Z,156619.03
2022-10-27T11:18:26.178Z,157039.94
2022-10-27T11:20:56.296Z,157409.72
2022-10-27T11:23:29.237Z,157025.81
2022-10-27T11:26:01.547Z,157168.31
2022-10-27T11:28:32.014Z,157222.22
2022-10-27T11:31:17.885Z,157480.41
2022-10-27T11:33:55.674Z,157037.38
2022-10-27T11:36:40.598Z,157271.03
2022-10-27T11:39:09.761Z,156289.50
2022-10-27T11:41:45.492Z,156188.25
2022-10-27T11:44:15.746Z,156430.53
2022-10-27T11:49:33.823Z,155670.81
2022-10-27T11:52:16.847Z,155610.69
2022-10-27T11:54:42.761Z,155848.78
2022-10-27T11:57:40.564Z,156403.56
2022-10-27T12:00:16.200Z,156135.72
2022-10-27T12:02:54.826Z,156379.25
2022-10-27T12:05:32.557Z,156228.00
2022-10-27T12:07:58.432Z,156356.19
2022-10-27T12:11:02.890Z,155947.38
2022-10-27T12:13:43.732Z,156361.28
2022-10-27T12:16:20.112Z,156617.75
2022-10-27T12:18:54.637Z,156690.84
2022-10-27T12:21:34.761Z,156911.56
2022-10-27T12:24:06.610Z,157163.19
2022-10-27T12:26:58.759Z,157086.16
2022-10-27T12:29:33.843Z,156539.53
2022-10-27T12:32:10.826Z,156386.91
2022-10-27T12:34:43.022Z,155851.31
2022-10-27T12:37:23.454Z,155930.72
2022-10-27T12:39:59.006Z,155874.41
2022-10-27T12:42:30.808Z,155987.06
2022-10-27T12:45:00.548Z,156110.06
2022-10-27T12:47:53.401Z,156167.72
2022-10-27T12:50:42.017Z,156080.66
2022-10-27T12:53:26.411Z,156252.34
2022-10-27T12:55:58.180Z,155873.06
2022-10-27T12:58:37.554Z,155661.88
2022-10-27T13:01:24.397Z,155766.81
2022-10-27T13:04:08.654Z,155755.34
2022-10-27T13:07:05.576Z,155824.41
2022-10-27T13:09:41.702Z,155564.59
2022-10-27T13:12:35.168Z,155412.34
2022-10-27T13:15:22.698Z,155233.25
2022-10-27T13:18:04.940Z,155013.34
2022-10-27T13:21:01.003Z,154692.63
2022-10-27T13:23:36.001Z,154589.25
2022-10-27T13:26:11.066Z,154656.88
2022-10-27T13:28:44.647Z,154567.50
2022-10-27T13:31:22.515Z,154377.31
2022-10-27T13:36:27.387Z,154127.28
2022-10-27T13:39:15.168Z,154035.41
2022-10-27T13:41:56.080Z,154044.38
2022-10-27T13:44:40.383Z,154044.38
2022-10-27T13:47:11.379Z,153906.69
2022-10-27T13:49:39.911Z,153891.34
2022-10-27T13:52:14.526Z,153918.19
2022-10-27T13:54:52.226Z,153927.06
2022-10-27T13:57:50.649Z,153867.16
2022-10-27T14:00:22.549Z,153881.19
2022-10-27T14:03:14.749Z,153885.00
2022-10-27T14:08:45.543Z,153812.34
2022-10-27T14:11:22.489Z,153823.78
2022-10-27T14:13:52.327Z,153813.63
2022-10-27T14:16:33.733Z,153827.66
2022-10-27T14:19:15.341Z,153767.75
2022-10-27T14:21:45.446Z,153780.50
2022-10-27T14:24:29.952Z,153730.78
2022-10-27T14:26:57.976Z,153720.63
2022-10-27T14:29:24.125Z,153683.66
2022-10-27T14:31:50.504Z,153683.66
2022-10-27T14:34:24.017Z,153675.97
2022-10-27T14:36:53.686Z,153654.34
2022-10-27T14:39:33.671Z,153645.44
2022-10-27T14:42:04.134Z,153625.03
2022-10-27T14:44:33.233Z,153625.03
2022-10-27T14:47:12.188Z,153600.84
2022-10-27T14:49:48.984Z,153626.28
2022-10-27T14:52:21.381Z,153631.44
2022-10-27T14:54:53.161Z,153649.25
2022-10-27T14:57:35.987Z,153618.69
2022-10-27T15:00:19.150Z,153598.31
2022-10-27T15:02:45.429Z,153614.88
2022-10-27T15:05:21.561Z,153571.53
2022-10-27T15:07:51.988Z,153561.38
2022-10-27T15:10:18.240Z,153553.72
2022-10-27T15:12:52.209Z,153555.03
2022-10-27T15:15:19.136Z,153493.88
2022-10-27T15:17:45.292Z,153495.16
2022-10-27T15:20:16.469Z,153495.16
2022-10-27T15:22:46.590Z,153462.06
2022-10-27T15:25:15.359Z,153446.78
2022-10-27T15:27:43.497Z,153431.47
2022-10-27T15:30:20.186Z,153444.19
2022-10-27T15:32:46.486Z,153394.56
2022-10-27T15:35:24.790Z,153404.72
2022-10-27T15:37:50.868Z,153409.84
2022-10-27T15:40:33.903Z,153414.94
2022-10-27T15:43:00.908Z,153388.19
2022-10-27T15:45:40.735Z,153390.72
2022-10-27T15:48:24.675Z,153360.22
2022-10-27T15:51:09.636Z,153353.81
2022-10-27T15:53:43.696Z,153297.81
2022-10-27T15:56:24.216Z,153311.84
2022-10-27T15:59:19.411Z,153316.91
2022-10-27T16:01:47.546Z,153324.56
2022-10-27T16:04:36.580Z,153336.00
2022-10-27T16:07:11.183Z,153318.19
2022-10-27T16:09:47.472Z,153296.56
2022-10-27T16:12:13.902Z,153318.19
2022-10-27T16:14:45.826Z,153292.75
2022-10-27T16:17:16.041Z,153264.78
2022-10-27T16:19:42.096Z,153236.78
2022-10-27T16:22:19.321Z,153259.66
2022-10-27T16:24:45.338Z,153267.31
2022-10-27T16:27:21.537Z,153259.66
2022-10-27T16:29:56.539Z,153238.03
2022-10-27T16:32:22.616Z,153227.84
2022-10-27T16:34:48.379Z,153197.28
2022-10-27T16:37:21.444Z,153193.47
2022-10-27T16:39:47.203Z,153180.75
2022-10-27T16:42:13.263Z,153170.56
2022-10-27T16:44:39.214Z,153171.81
2022-10-27T16:47:07.171Z,153194.75
2022-10-27T16:49:33.959Z,153169.28
2022-10-27T16:52:01.126Z,153180.75
2022-10-27T16:54:27.356Z,153166.75
2022-10-27T16:56:53.070Z,153178.22
2022-10-27T16:59:18.870Z,153187.09
2022-10-27T17:01:44.758Z,153183.28
2022-10-27T17:04:10.529Z,153174.41
2022-10-27T17:06:36.263Z,153150.22
2022-10-27T17:09:02.115Z,153145.13
2022-10-27T17:11:28.184Z,153126.06
2022-10-27T17:13:54.111Z,153140.06
2022-10-27T17:16:19.864Z,153124.78
2022-10-27T17:18:46.921Z,153109.53
2022-10-27T17:21:13.653Z,153118.41
2022-10-27T17:23:42.760Z,153082.78
2022-10-27T17:26:10.135Z,153108.25
2022-10-27T17:28:36.285Z,153084.09
2022-10-27T17:31:07.688Z,153115.88
2022-10-27T17:33:35.180Z,153115.88
2022-10-27T17:36:06.746Z,153113.31
2022-10-27T17:38:33.320Z,153091.72
2022-10-27T17:40:59.488Z,153099.31
2022-10-27T17:43:25.585Z,153133.66
2022-10-27T17:46:10.752Z,153101.91
2022-10-27T17:48:44.557Z,153063.72
2022-10-27T17:51:13.522Z,153067.56
2022-10-27T17:53:40.362Z,153056.09
2022-10-27T17:56:11.720Z,153057.38
2022-10-27T17:58:39.469Z,153053.56
2022-10-27T18:01:11.074Z,153053.56
2022-10-27T18:03:41.202Z,153063.72
2022-10-27T18:06:09.658Z,153085.38
2022-10-27T18:08:35.714Z,153064.97
2022-10-27T18:11:13.174Z,153061.19
2022-10-27T18:13:41.143Z,153068.84
2022-10-27T18:16:09.623Z,153051.03
2022-10-27T18:18:35.854Z,153080.25
2022-10-27T18:21:06.912Z,153070.09
2022-10-27T18:23:33.534Z,153073.91
2022-10-27T18:26:04.027Z,153081.53
2022-10-27T18:28:30.735Z,153089.19
2022-10-27T18:31:05.025Z,153098.06
2022-10-27T18:33:31.180Z,153103.19
2022-10-27T18:36:09.195Z,153105.72
2022-10-27T18:38:35.412Z,153075.19
2022-10-27T18:41:03.500Z,153081.53
2022-10-27T18:43:29.746Z,153094.25
2022-10-27T18:46:03.718Z,153067.56
2022-10-27T18:48:29.922Z,153087.91
2022-10-27T18:51:01.376Z,153090.44
2022-10-27T18:53:27.103Z,153103.19
2022-10-27T18:55:53.159Z,153106.97
2022-10-27T18:58:21.659Z,153092.97
2022-10-27T19:00:47.501Z,153087.91
2022-10-27T19:03:15.571Z,153119.66
2022-10-27T19:05:41.349Z,153100.59
2022-10-27T19:08:07.156Z,153077.72
2022-10-27T19:10:32.940Z,153034.50
2022-10-27T19:12:58.820Z,153030.69
2022-10-27T19:15:26.047Z,153043.38
2022-10-27T19:17:52.585Z,153023.03
2022-10-27T19:20:19.281Z,153021.75
2022-10-27T19:22:47.974Z,153009.03
2022-10-27T19:25:14.111Z,153012.88
2022-10-27T19:27:40.130Z,153024.31
2022-10-27T19:30:06.512Z,153003.97
2022-10-27T19:32:34.048Z,153006.50
2022-10-27T19:35:00.111Z,153006.50
2022-10-27T19:37:26.044Z,153001.44
2022-10-27T19:39:51.803Z,152981.09
2022-10-27T19:42:18.228Z,153007.78
2022-10-27T19:44:43.981Z,152964.50
2022-10-27T19:47:09.794Z,152953.06
2022-10-27T19:49:35.668Z,152978.56
2022-10-27T19:52:01.608Z,152976.03
2022-10-27T19:54:27.400Z,152978.56
2022-10-27T19:56:53.267Z,152997.63
2022-10-27T19:59:24.815Z,152993.81
2022-10-27T20:01:52.966Z,152988.69
2022-10-27T20:04:20.427Z,152982.38
2022-10-27T20:06:46.237Z,152974.72
2022-10-27T20:09:16.843Z,153009.03
2022-10-27T20:11:43.932Z,152973.44
2022-10-27T20:14:11.035Z,152977.28
2022-10-27T20:16:40.000Z,152973.44
2022-10-27T20:19:08.600Z,153003.97
2022-10-27T20:21:34.578Z,153005.22
2022-10-27T20:24:02.866Z,153029.44
2022-10-27T20:26:29.809Z,153009.03
2022-10-27T20:28:58.032Z,153003.97
2022-10-27T20:31:23.869Z,152983.63
2022-10-27T20:33:49.741Z,153005.22
2022-10-27T20:36:15.740Z,152996.34
2022-10-27T20:38:43.036Z,152987.44
2022-10-27T20:41:12.811Z,152973.44
2022-10-27T20:43:38.649Z,152988.69
2022-10-27T20:46:04.655Z,152960.72
2022-10-27T20:48:30.704Z,152982.38
2022-10-27T20:51:04.068Z,152983.63
2022-10-27T20:53:31.348Z,152984.91
2022-10-27T20:55:57.728Z,152972.16
2022-10-27T20:58:24.482Z,152947.97
2022-10-27T21:00:50.824Z,152955.59
2022-10-27T21:03:17.509Z,152953.06
2022-10-27T21:05:44.796Z,152967.09
2022-10-27T21:08:11.064Z,152955.59
2022-10-27T21:10:43.160Z,152963.25
2022-10-27T21:13:10.950Z,152995.09
2022-10-27T21:15:37.220Z,153010.31
2022-10-27T21:18:03.828Z,152987.44
2022-10-27T21:20:30.114Z,152988.69
2022-10-27T21:22:56.103Z,152984.91
2022-10-27T21:25:22.617Z,152968.38
2022-10-27T21:27:52.576Z,152982.38
2022-10-27T21:30:18.953Z,152955.59
2022-10-27T21:32:44.753Z,152968.38
2022-10-27T21:35:10.478Z,152981.09
2022-10-27T21:37:36.799Z,152972.16
2022-10-27T21:40:02.732Z,152961.97
2022-10-27T21:42:28.484Z,152961.97
2022-10-27T21:44:55.923Z,152953.06
2022-10-27T21:47:21.703Z,152956.84
2022-10-27T21:49:47.461Z,152958.16
2022-10-27T21:52:13.196Z,152954.31
2022-10-27T21:54:38.987Z,152923.84
2022-10-27T21:57:04.796Z,152916.19
2022-10-27T21:59:30.936Z,152931.44
2022-10-27T22:01:56.642Z,152920.00
2022-10-27T22:04:24.729Z,152942.91
2022-10-27T22:06:52.924Z,152959.44
2022-10-27T22:11:50.379Z,152981.09
2022-10-27T22:14:16.235Z,152976.03
2022-10-27T22:16:44.892Z,152961.97
2022-10-27T22:19:11.541Z,152992.50
2022-10-27T22:21:38.301Z,152979.81
2022-10-27T22:24:05.865Z,152973.44
2022-10-27T22:26:32.821Z,152955.59
2022-10-27T22:28:59.057Z,152978.56
2022-10-27T22:31:27.483Z,152963.25
2022-10-27T22:33:54.212Z,152967.09
2022-10-27T22:36:21.414Z,152958.16
2022-10-27T22:38:54.815Z,152953.06
2022-10-27T22:41:20.892Z,152925.09
2022-10-27T22:43:46.661Z,152931.44
2022-10-27T22:46:23.196Z,152921.31
2022-10-27T22:48:49.439Z,152937.78
2022-10-27T22:51:18.917Z,152939.09
2022-10-27T22:53:45.826Z,152935.25
2022-10-27T22:56:17.181Z,152931.44
2022-10-27T22:58:46.692Z,152956.84
2022-10-27T23:01:17.671Z,152963.25
2022-10-27T23:03:44.132Z,152973.44
2022-10-27T23:06:10.547Z,152988.69
2022-10-27T23:08:36.579Z,152984.91
2022-10-27T23:11:05.011Z,152987.44
2022-10-27T23:13:33.600Z,152998.91
2022-10-27T23:16:01.812Z,152989.97
2022-10-27T23:18:27.805Z,152993.81
2022-10-27T23:20:58.214Z,153011.63
2022-10-27T23:23:24.939Z,153003.97
2022-10-27T23:25:51.460Z,153024.31
2022-10-27T23:28:17.962Z,153039.56
2022-10-27T23:30:44.329Z,153006.50
2022-10-27T23:33:10.095Z,153019.22
2022-10-27T23:35:35.821Z,153006.50
2022-10-27T23:38:01.897Z,153051.03
2022-10-27T23:40:27.768Z,153068.84
2022-10-27T23:42:53.991Z,153076.44
2022-10-27T23:45:20.443Z,153078.97
2022-10-27T23:47:46.399Z,153085.38
2022-10-27T23:50:12.203Z,153077.72
2022-10-27T23:52:38.024Z,153099.31
2022-10-27T23:55:04.517Z,153059.91
2022-10-27T23:57:30.639Z,153049.75
2022-10-27T23:59:56.461Z,153038.31
